Aviation Digital Data Service (ADDS)

Output produced by METARs form (2310 UTC 15 August 2018)
found at http://www.aviationweather.gov/adds/metars/
 
TAF EEEI 151730Z 1518/1618 VRB02KT 9999 BKN015 
     TEMPO 1522/1603 2000 BR MIFG SCT003 
     PROB40 
     TEMPO 1608/1610 7000 SHRA SCT008 SCT015TCU 
     BECMG 1610/1612 30005KT SCT020
       
EEKE 152250Z AUTO 34003KT 9999NDV NSC 16/14 Q1015
EETN 152250Z 00000KT 9999 BKN042 14/13 Q1015
TAF EETN 152300Z 1600/1624 VRB02KT 6000 BKN040 
     TEMPO 1600/1605 0500 BCFG BKN003 
     BECMG 1605/1607 9999 NSW 
     TEMPO 1609/1613 FEW035CB 
     TEMPO 1610/1615 31009KT
       
EETU 152250Z 01002KT 9999 BKN003 OVC011 17/17 Q1014
TAF AMD EETU 152200Z 1522/1603 VRB02KT 4000 BR BKN002 OVC007 
     TEMPO 1522/1603 0400 FG VV002 
     PROB30 
     TEMPO 1522/1524 BKN002 FEW030CB